Data for 01/09/2008

Time Sea-Level Adjusted Pressure Absolute Pressure Temperature Relative Humidity Dew Point   
(mb) (inHg) (mb) (inHg) (C) (F) (%) (C) (F)
00:05 1007 29.74 836 24.69 -4.2 24.5 59 -11 12.2
00:10 1007 29.74 836 24.69 -3.9 25 58 -11 12.2
00:15 1007 29.74 836 24.69 -3.6 25.5 58 -10.8 12.5
00:20 1007 29.74 836 24.69 -3.5 25.7 57 -10.8 12.6
00:25 1007 29.74 836 24.69 -3.6 25.6 59 -10.5 13.2
00:30 1007 29.74 836 24.69 -3.9 24.9 63 -10 14
00:35 1007 29.74 836 24.69 -4.3 24.3 65 -10 14.1
00:40 1007 29.74 836 24.69 -3.9 25 59 -10.7 12.7
00:45 1007 29.74 836 24.69 -3.3 26.1 57 -10.6 12.9
00:50 1007 29.74 836 24.69 -3.1 26.4 61 -9.7 14.6
00:55 1007 29.74 836 24.69 -3.2 26.2 61 -9.8 14.4
01:00 1007 29.74 836 24.69 -3.2 26.3 61 -9.7 14.5
01:05 1007 29.74 836 24.69 -3.3 26.1 61 -9.9 14.2
01:10 1007 29.74 836 24.69 -3.2 26.2 58 -10.4 13.3
01:15 1007 29.74 836 24.69 -3 26.6 60 -9.7 14.6
01:20 1007 29.74 836 24.69 -3.2 26.2 62 -9.5 15
01:25 1007 29.74 836 24.69 -3.2 26.2 61 -9.8 14.4
01:30 1007 29.74 836 24.69 -3.3 26.1 61 -9.7 14.5
01:35 1007 29.74 836 24.69 -3.2 26.3 60 -9.9 14.3
01:40 1007 29.74 836 24.69 -3.1 26.5 61 -9.6 14.8
01:45 1007 29.74 836 24.69 -3.2 26.3 60 -9.9 14.2
01:50 1007 29.74 836 24.69 -3 26.6 59 -9.9 14.3
01:55 1007 29.74 836 24.69 -2.9 26.7 59 -9.8 14.3
02:00 1007 29.74 836 24.69 -2.9 26.8 60 -9.7 14.5
02:05 1007 29.74 836 24.69 -3 26.7 59 -9.8 14.4
02:10 1007 29.74 836 24.69 -2.9 26.7 59 -9.8 14.4
02:15 1007 29.74 836 24.69 -2.9 26.7 60 -9.7 14.5
02:20 1007 29.74 836 24.69 -2.9 26.8 59 -9.8 14.4
02:25 1007 29.74 836 24.69 -2.8 27 61 -9.3 15.2
02:30 1007 29.74 836 24.69 -3.1 26.4 64 -9 15.8
02:35 1007 29.74 836 24.69 -3.4 25.9 65 -9 15.7
02:40 1007 29.74 836 24.69 -3.5 25.7 64 -9.3 15.3
02:45 1007 29.74 836 24.69 -3.4 25.9 62 -9.6 14.7
02:50 1007 29.74 836 24.69 -3.2 26.3 61 -9.7 14.5
02:55 1007 29.74 836 24.69 -2.9 26.7 61 -9.5 14.9
03:00 1007 29.74 836 24.69 -2.9 26.7 60 -9.7 14.5
03:05 1007 29.74 836 24.69 -2.8 26.9 61 -9.4 15.1
03:10 1007 29.74 836 24.69 -2.8 27 58 -9.9 14.1
03:15 1007 29.74 836 24.69 -2.6 27.4 57 -10 13.9
03:20 1007 29.74 836 24.69 -2.4 27.7 57 -9.7 14.5
03:25 1007 29.74 836 24.69 -2.4 27.7 56 -10 13.9
03:30 1007 29.74 836 24.69 -2.3 27.9 58 -9.5 15
03:35 1007 29.74 836 24.69 -2.4 27.7 57 -9.7 14.5
03:40 1007 29.74 836 24.69 -2.3 27.8 58 -9.4 15.1
03:45 1007 29.74 836 24.69 -2.3 27.8 58 -9.5 14.9
03:50 1007 29.74 836 24.69 -2.2 28 58 -9.5 14.9
03:55 1007 29.74 836 24.69 -2.2 28.1 60 -9 15.8
04:00 1007 29.74 836 24.69 -2.3 27.9 57 -9.8 14.4
04:05 1007 29.74 836 24.69 -1.9 28.5 54 -10 14
04:10 1007 29.74 836 24.69 -1.8 28.8 55 -9.6 14.7
04:15 1007 29.74 836 24.69 -1.7 28.9 55 -9.7 14.6
04:20 1007 29.74 836 24.69 -1.6 29.2 55 -9.5 14.9
04:25 1007 29.74 836 24.69 -1.5 29.3 61 -8.2 17.3
04:30 1007 29.74 836 24.69 -2 28.4 61 -8.6 16.5
04:35 1007 29.74 836 24.69 -2.3 27.8 61 -8.9 16
04:40 1007 29.74 837 24.72 -2.3 27.9 60 -9.1 15.7
04:45 1007 29.74 837 24.72 -2.2 28 62 -8.5 16.7
04:50 1007 29.74 837 24.72 -2.5 27.6 62 -8.7 16.3
04:55 1007 29.74 837 24.72 -2.3 27.8 62 -8.7 16.3
05:00 1007 29.74 837 24.72 -2.1 28.3 62 -8.4 16.8
05:05 1007 29.74 837 24.72 -1.8 28.8 58 -9.1 15.7
05:10 1007 29.74 837 24.72 -1.4 29.5 57 -8.8 16.1
05:15 1007 29.74 837 24.72 -1.4 29.5 59 -8.4 16.9
05:20 1008 29.77 837 24.72 -1.7 29 58 -8.8 16.1
05:25 1007 29.74 837 24.72 -1.4 29.4 56 -9.1 15.7
05:30 1008 29.77 837 24.72 -1.3 29.7 57 -8.8 16.1
05:35 1008 29.77 837 24.72 -1.1 29.9 55 -9 15.8
05:40 1008 29.77 837 24.72 -1.1 30 56 -8.9 16
05:45 1008 29.77 837 24.72 -1.2 29.8 56 -9 15.8
05:50 1008 29.77 837 24.72 -1.3 29.7 56 -9 15.8
05:55 1008 29.77 837 24.72 -1.2 29.8 56 -8.9 15.9
06:00 1008 29.77 837 24.72 -1.4 29.5 57 -8.8 16.2
06:05 1008 29.77 837 24.72 -1.4 29.4 57 -8.9 15.9
06:10 1008 29.77 837 24.72 -1.3 29.6 59 -8.4 16.9
06:15 1008 29.77 837 24.72 -1.5 29.4 59 -8.6 16.6
06:20 1008 29.77 837 24.72 -1.4 29.4 58 -8.6 16.5
06:25 1008 29.77 837 24.72 -1.3 29.7 58 -8.6 16.5
06:30 1008 29.77 837 24.72 -1.3 29.7 57 -8.6 16.4
06:35 1008 29.77 837 24.72 -1.3 29.6 57 -8.7 16.3
06:40 1008 29.77 837 24.72 -1.3 29.6 58 -8.6 16.6
06:45 1008 29.77 837 24.72 -1.4 29.5 57 -8.9 15.9
06:50 1008 29.77 837 24.72 -1.2 29.9 56 -8.9 16
06:55 1008 29.77 837 24.72 -1.1 30.1 55 -8.9 16
07:00 1008 29.77 837 24.72 -0.9 30.4 55 -8.9 16
07:05 1008 29.77 837 24.72 -0.8 30.6 55 -8.7 16.3
07:10 1008 29.77 837 24.72 -0.8 30.6 55 -8.6 16.4
07:15 1008 29.77 837 24.72 -1 30.2 57 -8.4 16.9
07:20 1008 29.77 837 24.72 -0.9 30.4 56 -8.5 16.7
07:25 1008 29.77 837 24.72 -0.8 30.6 55 -8.6 16.5
07:30 1008 29.77 837 24.72 -0.7 30.7 56 -8.6 16.6
07:35 1008 29.77 837 24.72 -0.8 30.5 56 -8.6 16.5
07:40 1008 29.77 837 24.72 -0.9 30.4 56 -8.7 16.3
07:45 1008 29.77 837 24.72 -0.9 30.4 55 -8.7 16.3
07:50 1008 29.77 838 24.75 -0.9 30.3 56 -8.6 16.5
07:55 1008 29.77 838 24.75 -0.9 30.3 57 -8.5 16.7
08:00 1009 29.8 838 24.75 -1 30.2 57 -8.4 16.8
08:05 1009 29.8 838 24.75 -1.1 30.1 58 -8.4 17
08:10 1008 29.77 838 24.75 -1.1 29.9 58 -8.4 16.9
08:15 1009 29.8 838 24.75 -1.3 29.7 59 -8.2 17.2
08:20 1009 29.8 838 24.75 -1.4 29.4 60 -8.3 17.1
08:25 1009 29.8 838 24.75 -1.5 29.3 60 -8.3 17
08:30 1009 29.8 838 24.75 -1.5 29.3 60 -8.3 17.1
08:35 1009 29.8 838 24.75 -1.5 29.3 60 -8.4 16.9
08:40 1009 29.8 838 24.75 -1.5 29.3 60 -8.3 17.1
08:45 1009 29.8 838 24.75 -1.5 29.3 60 -8.2 17.2
08:50 1009 29.8 838 24.75 -1.4 29.5 60 -8.3 17.1
08:55 1009 29.8 838 24.75 -1.4 29.5 59 -8.3 17
09:00 1009 29.8 839 24.78 -1.4 29.4 60 -8.2 17.2
09:05 1009 29.8 839 24.78 -1.5 29.2 59 -8.6 16.6
09:10 1009 29.8 839 24.78 -1.3 29.7 58 -8.4 16.9
09:15 1010 29.83 839 24.78 -1.2 29.9 59 -8.2 17.2
09:20 1010 29.83 839 24.78 -1.1 30 58 -8.3 17
09:25 1010 29.83 839 24.78 -1 30.3 58 -8.3 17.1
09:30 1010 29.83 839 24.78 -0.7 30.8 56 -8.4 16.9
09:35 1010 29.83 839 24.78 -0.4 31.2 56 -8.2 17.2
09:40 1010 29.83 839 24.78 -0.3 31.5 55 -8.2 17.3
09:45 1010 29.83 839 24.78 -0.2 31.6 55 -8.2 17.2
09:50 1010 29.83 839 24.78 -0.2 31.6 55 -8.2 17.2
09:55 1010 29.83 839 24.78 -0.3 31.4 56 -8.2 17.3
10:00 1010 29.83 839 24.78 -0.3 31.5 55 -8.3 17
10:05 1010 29.83 839 24.78 -0.3 31.4 56 -8 17.5
10:10 1010 29.83 839 24.78 -0.1 31.8 55 -8.2 17.3
10:15 1010 29.83 839 24.78 0.3 32.5 53 -8.1 17.4
10:20 1010 29.83 840 24.81 0.5 32.9 52 -8.1 17.3
10:25 1010 29.83 840 24.81 0.6 33.1 52 -8.1 17.4
10:30 1011 29.85 840 24.81 0.4 32.8 53 -8 17.7
10:35 1011 29.85 840 24.81 0.5 33 54 -7.8 18
10:40 1011 29.85 840 24.81 0.7 33.2 54 -7.7 18.1
10:45 1011 29.85 840 24.81 0.7 33.2 53 -7.7 18.1
10:50 1011 29.85 840 24.81 0.6 33.1 54 -7.6 18.3
10:55 1011 29.85 840 24.81 0.6 33.1 54 -7.5 18.4
11:00 1011 29.85 840 24.81 0.9 33.5 54 -7.3 18.8
11:05 1011 29.85 840 24.81 0.9 33.5 54 -7.3 18.8
11:10 1011 29.85 840 24.81 0.7 33.3 55 -7.3 18.8
11:15 1011 29.85 840 24.81 0.6 33.1 56 -7.2 19.1
11:20 1011 29.85 840 24.81 0.5 32.9 56 -7.2 19
11:25 1011 29.85 840 24.81 0.3 32.6 58 -7 19.3
11:30 1011 29.85 840 24.81 0.3 32.6 56 -7.5 18.6
11:35 1011 29.85 840 24.81 0.3 32.5 56 -7.4 18.7
11:40 1011 29.85 840 24.81 0.5 32.9 56 -7.4 18.8
11:45 1011 29.85 840 24.81 0.8 33.4 54 -7.6 18.4
11:50 1011 29.85 840 24.81 1 33.9 53 -7.4 18.7
11:55 1011 29.85 840 24.81 0.7 33.2 55 -7.4 18.7
12:00 1011 29.85 840 24.81 1 33.8 54 -7.4 18.6
12:05 1011 29.85 840 24.81 1.7 35 50 -7.5 18.4
12:10 1011 29.85 840 24.81 1.8 35.2 50 -7.5 18.6
12:15 1011 29.85 840 24.81 1.2 34.2 54 -7.1 19.2
12:20 1011 29.85 841 24.83 0.8 33.4 54 -7.5 18.5
12:25 1011 29.85 841 24.83 1.3 34.3 49 -8.4 17
12:30 1011 29.85 841 24.83 2.6 36.7 44 -8.4 16.9
12:35 1011 29.85 841 24.83 2.6 36.7 48 -7.5 18.6
12:40 1011 29.85 841 24.83 2.1 35.7 49 -7.6 18.4
12:45 1011 29.85 841 24.83 1.5 34.6 51 -7.7 18.1
12:50 1011 29.85 841 24.83 1.7 35.1 49 -7.8 17.9
12:55 1011 29.85 841 24.83 2 35.5 48 -7.9 17.8
13:00 1011 29.85 841 24.83 2.3 36.2 47 -7.8 17.9
13:05 1011 29.85 841 24.83 2.8 37 49 -7 19.4
13:10 1011 29.85 841 24.83 2.8 37 48 -7.3 18.9
13:15 1012 29.88 841 24.83 2.6 36.7 49 -7 19.4
13:20 1012 29.88 841 24.83 2.2 35.9 49 -7.4 18.6
13:25 1012 29.88 841 24.83 1.9 35.5 55 -6.3 20.7
13:30 1012 29.88 841 24.83 1.3 34.4 62 -5.1 22.7
13:35 1012 29.88 841 24.83 1 33.9 64 -5 23
13:40 1012 29.88 841 24.83 1.1 34 62 -5.4 22.3
13:45 1012 29.88 841 24.83 1.5 34.6 57 -6.1 21.1
13:50 1012 29.88 841 24.83 1.1 34 73 -3.3 26.1
13:55 1012 29.88 841 24.83 -0 32 74 -4.1 24.6
14:00 1012 29.88 841 24.83 -0.1 31.7 73 -4.4 24.1
14:05 1012 29.88 841 24.83 0.2 32.3 71 -4.6 23.8
14:10 1012 29.88 841 24.83 0.4 32.8 68 -4.8 23.4
14:15 1012 29.88 841 24.83 0.5 32.9 66 -5.1 22.8
14:20 1012 29.88 841 24.83 0.7 33.2 61 -5.9 21.3
14:25 1012 29.88 841 24.83 1 33.8 60 -5.8 21.6
14:30 1012 29.88 841 24.83 0.9 33.6 63 -5.3 22.5
14:35 1012 29.88 842 24.86 0.6 33 64 -5.4 22.3
14:40 1012 29.88 842 24.86 0.3 32.6 67 -5.2 22.6
14:45 1012 29.88 842 24.86 0.3 32.6 66 -5.3 22.5
14:50 1013 29.91 842 24.86 0.6 33.1 65 -5.2 22.6
14:55 1013 29.91 842 24.86 0.8 33.4 67 -4.7 23.6
15:00 1013 29.91 842 24.86 1.3 34.3 64 -4.8 23.4
15:05 1013 29.91 842 24.86 1.2 34.2 65 -4.5 23.9
15:10 1013 29.91 842 24.86 0.9 33.7 64 -5 22.9
15:15 1013 29.91 842 24.86 0.8 33.5 66 -4.8 23.4
15:20 1013 29.91 842 24.86 0.7 33.2 70 -4.2 24.4
15:25 1013 29.91 842 24.86 0.9 33.7 67 -4.5 23.9
15:30 1013 29.91 842 24.86 1.2 34.2 71 -3.5 25.7
15:35 1013 29.91 842 24.86 0.2 32.4 73 -4.1 24.6
15:40 1013 29.91 842 24.86 0.4 32.7 70 -4.4 24.1
15:45 1013 29.91 842 24.86 0.4 32.7 70 -4.5 23.9
15:50 1013 29.91 843 24.89 0.3 32.6 70 -4.5 23.8
15:55 1013 29.91 843 24.89 0.4 32.7 68 -4.8 23.4
16:00 1013 29.91 843 24.89 0.1 32.2 71 -4.6 23.7
16:05 1013 29.91 843 24.89 -0.1 31.8 72 -4.7 23.6
16:10 1014 29.94 843 24.89 -0.3 31.5 71 -4.9 23.2
16:15 1014 29.94 843 24.89 -0.4 31.4 73 -4.6 23.7
16:20 1014 29.94 843 24.89 -0.4 31.2 74 -4.5 23.9
16:25 1014 29.94 843 24.89 -0.6 30.9 74 -4.6 23.7
16:30 1014 29.94 843 24.89 -0.7 30.7 71 -5.3 22.4
16:35 1014 29.94 843 24.89 -0.6 30.9 73 -4.9 23.2
16:40 1014 29.94 843 24.89 -0.5 31 70 -5.4 22.2
16:45 1014 29.94 843 24.89 -0.3 31.4 68 -5.6 22
16:50 1014 29.94 843 24.89 -0.5 31.1 72 -4.9 23.2
16:55 1014 29.94 843 24.89 -0.7 30.7 75 -4.5 23.8
17:00 1014 29.94 843 24.89 -0.9 30.3 75 -4.7 23.5
17:05 1014 29.94 843 24.89 -1.1 30 76 -4.7 23.5
17:10 1014 29.94 843 24.89 -1.2 29.9 77 -4.7 23.5
17:15 1014 29.94 843 24.89 -1.3 29.6 77 -4.9 23.2
17:20 1014 29.94 843 24.89 -1.5 29.4 76 -5.2 22.7
17:25 1014 29.94 844 24.92 -1.4 29.4 75 -5.4 22.4
17:30 1014 29.94 844 24.92 -1.4 29.4 74 -5.5 22.2
17:35 1015 29.97 844 24.92 -1.5 29.2 75 -5.4 22.4
17:40 1015 29.97 844 24.92 -1.5 29.3 72 -5.9 21.4
17:45 1015 29.97 844 24.92 -1.2 29.8 71 -5.8 21.6
17:50 1015 29.97 844 24.92 -1.2 29.9 71 -5.7 21.7
17:55 1015 29.97 844 24.92 -1.3 29.6 72 -5.8 21.5
18:00 1015 29.97 844 24.92 -1.5 29.3 72 -5.8 21.5
18:05 1015 29.97 844 24.92 -1.6 29.2 74 -5.6 21.9
18:10 1015 29.97 844 24.92 -1.8 28.8 76 -5.4 22.3
18:15 1015 29.97 844 24.92 -1.8 28.8 77 -5.3 22.5
18:20 1015 29.97 844 24.92 -1.6 29.1 77 -5.1 22.7
18:25 1015 29.97 844 24.92 -1.5 29.4 77 -5 23
18:30 1015 29.97 844 24.92 -1.4 29.5 77 -5 23.1
18:35 1015 29.97 844 24.92 -1.4 29.5 77 -4.9 23.1
18:40 1015 29.97 844 24.92 -1.4 29.5 75 -5.3 22.5
18:45 1015 29.97 844 24.92 -1.3 29.7 74 -5.4 22.3
18:50 1015 29.97 844 24.92 -1.3 29.7 73 -5.5 22.1
18:55 1015 29.97 844 24.92 -1.2 29.8 72 -5.6 21.9
19:00 1015 29.97 844 24.92 -1.2 29.8 72 -5.6 22
19:05 1015 29.97 844 24.92 -1.2 29.9 72 -5.6 22
19:10 1015 29.97 844 24.92 -1.2 29.9 73 -5.5 22.2
19:15 1015 29.97 844 24.92 -1.2 29.9 72 -5.6 21.9
19:20 1015 29.97 844 24.92 -1.1 30 70 -5.8 21.5
19:25 1015 29.97 844 24.92 -1 30.1 71 -5.6 22
19:30 1015 29.97 844 24.92 -1.1 30.1 72 -5.5 22.1
19:35 1015 29.97 844 24.92 -1.1 30.1 69 -6.1 21
19:40 1015 29.97 844 24.92 -0.9 30.4 68 -6.1 21
19:45 1015 29.97 844 24.92 -0.9 30.4 68 -6.1 21
19:50 1015 29.97 844 24.92 -0.8 30.5 69 -5.9 21.4
19:55 1015 29.97 844 24.92 -0.9 30.4 71 -5.5 22.2
20:00 1015 29.97 844 24.92 -1 30.1 72 -5.4 22.3
20:05 1015 29.97 844 24.92 -1.2 29.8 73 -5.4 22.2
20:10 1015 29.97 844 24.92 -1.2 29.8 71 -5.9 21.4
20:15 1015 29.97 844 24.92 -1.1 30.1 67 -6.4 20.4
20:20 1015 29.97 844 24.92 -1 30.3 66 -6.5 20.4
20:25 1015 29.97 844 24.92 -0.9 30.3 67 -6.4 20.5
20:30 1015 29.97 844 24.92 -1 30.2 67 -6.4 20.5
20:35 1015 29.97 844 24.92 -1 30.2 65 -6.7 19.9
20:40 1015 29.97 844 24.92 -1 30.2 64 -6.9 19.5
20:45 1015 29.97 844 24.92 -1.1 30 63 -7.2 19
20:50 1015 29.97 844 24.92 -1.1 30 65 -6.9 19.6
20:55 1015 29.97 844 24.92 -1.3 29.7 65 -7.1 19.3
21:00 1015 29.97 844 24.92 -1.5 29.2 66 -7.2 19.1
21:05 1015 29.97 844 24.92 -1.8 28.8 73 -6 21.2
21:10 1015 29.97 844 24.92 -2.3 27.8 75 -6.2 20.9
21:15 1015 29.97 844 24.92 -2.3 27.8 74 -6.4 20.4
21:20 1015 29.97 844 24.92 -2 28.3 71 -6.7 20
21:25 1015 29.97 844 24.92 -1.9 28.6 71 -6.6 20.2
21:30 1015 29.97 844 24.92 -1.9 28.6 70 -6.7 19.9
21:35 1015 29.97 844 24.92 -2 28.4 69 -7 19.4
21:40 1015 29.97 844 24.92 -2.1 28.3 70 -6.8 19.7
21:45 1015 29.97 844 24.92 -2.1 28.1 65 -7.8 17.9
21:50 1015 29.97 844 24.92 -2 28.5 65 -7.8 18
21:55 1015 29.97 844 24.92 -2.1 28.3 64 -7.9 17.7
22:00 1015 29.97 844 24.92 -2.1 28.1 65 -7.8 17.9
22:05 1015 29.97 844 24.92 -2.3 27.8 65 -8 17.6
22:10 1015 29.97 844 24.92 -2.5 27.5 65 -8.2 17.2
22:15 1015 29.97 844 24.92 -2.7 27.2 64 -8.6 16.5
22:20 1015 29.97 844 24.92 -2.8 26.9 62 -9 15.7
22:25 1015 29.97 844 24.92 -2.9 26.9 61 -9.3 15.3
22:30 1015 29.97 844 24.92 -2.8 26.9 60 -9.5 14.9
22:35 1015 29.97 844 24.92 -2.8 27 65 -8.5 16.7
22:40 1015 29.97 844 24.92 -3.1 26.3 67 -8.5 16.8
22:45 1015 29.97 844 24.92 -3.4 25.8 68 -8.5 16.7
22:50 1015 29.97 844 24.92 -3.5 25.7 66 -8.9 16
22:55 1015 29.97 844 24.92 -3.3 26.1 66 -8.8 16.2
23:00 1015 29.97 844 24.92 -3.2 26.3 66 -8.7 16.3
23:05 1015 29.97 844 24.92 -3.2 26.3 66 -8.6 16.5
23:10 1015 29.97 844 24.92 -3.3 26.1 68 -8.5 16.8
23:15 1015 29.97 844 24.92 -3.5 25.8 67 -8.6 16.4
23:20 1015 29.97 844 24.92 -3.4 26 67 -8.6 16.6
23:25 1015 29.97 844 24.92 -3.3 26 68 -8.4 17
23:30 1015 29.97 844 24.92 -3.5 25.8 69 -8.4 16.9
23:35 1015 29.97 844 24.92 -3.5 25.6 69 -8.5 16.7
23:40 1015 29.97 844 24.92 -3.6 25.6 69 -8.5 16.8
23:45 1015 29.97 844 24.92 -3.6 25.6 68 -8.6 16.5
23:50 1015 29.97 844 24.92 -3.4 25.9 67 -8.6 16.4
23:55 1014 29.94 844 24.92 -3.3 26 67 -8.6 16.6
24:00 1014 29.94 844 24.92 -3.4 25.9 66 -8.8 16.2